Time;durP1;ratioP1;P1;durP2;ratioP2;P2;SDS_P1;SDS_P2;PMS_P1;PMS_P2;Temp;Humidity;BMP_temperature;BMP_pressure;BME280_temperature;BME280_humidity;BME280_pressure;Samples;Min_cycle;Max_cycle;Signal;HPM_P1;HPM_P2
2023/10/25 00:00:17;;;;;;;1.92;1.00;;;16.10;73.50;;;;;;5134417;27;20169;-67
2023/10/25 00:02:42;;;;;;;1.20;1.10;;;16.10;73.50;;;;;;5134489;27;20177;-65
2023/10/25 00:05:08;;;;;;;1.70;1.13;;;16.10;73.50;;;;;;5132756;27;20168;-66
2023/10/25 00:07:34;;;;;;;1.40;1.30;;;16.10;73.50;;;;;;5134554;27;20172;-66
2023/10/25 00:10:01;;;;;;;0.95;0.80;;;16.00;73.40;;;;;;5134365;27;20216;-66
2023/10/25 00:12:27;;;;;;;1.10;1.10;;;16.00;73.40;;;;;;5133736;27;20204;-66
2023/10/25 00:14:53;;;;;;;1.48;1.15;;;16.00;73.40;;;;;;5134420;27;20176;-66
2023/10/25 00:17:18;;;;;;;1.70;1.45;;;16.00;73.40;;;;;;5133989;27;20945;-66
2023/10/25 00:19:44;;;;;;;1.25;1.15;;;16.00;73.40;;;;;;5133442;27;20175;-65
2023/10/25 00:22:09;;;;;;;1.65;1.40;;;16.00;73.40;;;;;;5134306;27;20172;-66
2023/10/25 00:24:35;;;;;;;1.20;1.00;;;16.00;73.40;;;;;;5134239;27;20179;-66
2023/10/25 00:27:00;;;;;;;1.67;1.17;;;16.00;73.40;;;;;;5133325;27;20252;-66
2023/10/25 00:29:29;;;;;;;1.20;1.15;;;16.00;73.40;;;;;;5133962;27;20200;-66
2023/10/25 00:31:54;;;;;;;0.90;0.90;;;16.00;73.40;;;;;;5133604;27;20172;-66
2023/10/25 00:34:20;;;;;;;2.25;1.10;;;16.00;73.30;;;;;;5133419;27;20217;-66
2023/10/25 00:36:45;;;;;;;1.48;1.38;;;16.00;73.40;;;;;;5134173;27;20176;-67
2023/10/25 00:39:11;;;;;;;1.10;1.10;;;16.00;73.30;;;;;;5133352;27;20176;-66
2023/10/25 00:41:36;;;;;;;1.30;1.20;;;16.00;73.40;;;;;;5133897;27;20198;-67
2023/10/25 00:44:02;;;;;;;1.27;1.17;;;16.00;73.40;;;;;;5133664;27;20647;-66
2023/10/25 00:46:28;;;;;;;1.02;1.00;;;15.90;73.30;;;;;;5133035;27;20164;-66
2023/10/25 00:48:58;;;;;;;0.90;0.90;;;16.00;73.40;;;;;;5133558;27;20254;-65
2023/10/25 00:51:24;;;;;;;1.45;1.17;;;16.00;73.30;;;;;;5133888;27;20196;-66
2023/10/25 00:53:50;;;;;;;1.65;1.10;;;15.90;73.30;;;;;;5132926;27;20309;-66
2023/10/25 00:56:16;;;;;;;1.02;1.02;;;15.90;73.30;;;;;;5115155;27;20172;-66
2023/10/25 00:58:44;;;;;;;1.50;1.10;;;16.00;73.30;;;;;;5133797;27;20502;-67
2023/10/25 01:01:09;;;;;;;1.33;1.17;;;15.90;73.20;;;;;;5132683;27;20168;-66
2023/10/25 01:03:35;;;;;;;0.82;0.82;;;15.90;73.20;;;;;;5098428;28;20172;-66
2023/10/25 01:06:02;;;;;;;2.05;1.05;;;16.00;73.30;;;;;;5133643;27;20259;-66
2023/10/25 01:08:27;;;;;;;1.20;1.10;;;15.90;73.30;;;;;;5132719;28;20168;-65
2023/10/25 01:10:53;;;;;;;1.25;1.15;;;16.00;73.30;;;;;;5133860;28;20574;-66
2023/10/25 01:13:19;;;;;;;0.95;0.93;;;15.90;73.20;;;;;;5133272;28;20574;-66
2023/10/25 01:15:45;;;;;;;1.20;1.10;;;15.90;73.20;;;;;;5132785;28;20176;-66
2023/10/25 01:18:10;;;;;;;0.98;0.90;;;15.90;73.20;;;;;;5136661;27;20175;-66
2023/10/25 01:20:36;;;;;;;1.35;1.20;;;15.90;73.30;;;;;;5137841;27;20172;-66
2023/10/25 01:23:01;;;;;;;1.20;1.10;;;15.90;73.20;;;;;;5137112;27;20172;-66
2023/10/25 01:25:27;;;;;;;1.23;1.15;;;15.90;73.20;;;;;;5137646;27;20168;-66
2023/10/25 01:27:52;;;;;;;1.48;1.38;;;15.90;73.20;;;;;;5137927;27;20654;-66
2023/10/25 01:30:18;;;;;;;1.10;0.98;;;15.90;73.20;;;;;;5136516;27;20208;-66
2023/10/25 01:32:43;;;;;;;1.27;1.17;;;15.90;74.10;;;;;;5137697;27;20229;-66
2023/10/25 01:35:10;;;;;;;0.80;0.80;;;15.90;73.20;;;;;;5137318;27;20573;-66
2023/10/25 01:37:36;;;;;;;1.20;1.10;;;15.90;73.20;;;;;;5136669;27;20252;-66
2023/10/25 01:40:03;;;;;;;1.35;1.25;;;15.90;73.20;;;;;;5137213;27;20604;-67
2023/10/25 01:42:28;;;;;;;1.33;1.23;;;15.90;73.20;;;;;;5118624;27;20538;-66
2023/10/25 01:44:54;;;;;;;1.08;1.00;;;15.90;73.20;;;;;;5137315;27;20169;-66
2023/10/25 01:47:19;;;;;;;1.70;1.02;;;15.90;73.20;;;;;;5136782;27;20224;-66
2023/10/25 01:49:45;;;;;;;1.08;0.95;;;15.90;73.20;;;;;;5136586;27;20204;-66
2023/10/25 01:52:10;;;;;;;1.20;1.10;;;15.90;73.20;;;;;;5137235;27;20737;-66
2023/10/25 01:54:36;;;;;;;1.50;1.08;;;15.90;73.20;;;;;;5137050;27;20515;-66
2023/10/25 01:57:02;;;;;;;1.05;0.95;;;15.80;73.10;;;;;;5136265;27;20755;-67
2023/10/25 01:59:28;;;;;;;1.20;1.17;;;15.90;73.10;;;;;;5136790;27;20321;-66
2023/10/25 02:01:54;;;;;;;2.65;1.40;;;15.90;73.10;;;;;;5137258;27;20172;-67
2023/10/25 02:04:19;;;;;;;1.60;0.98;;;15.90;73.10;;;;;;5136259;27;20172;-66
2023/10/25 02:06:45;;;;;;;0.90;0.90;;;15.90;73.10;;;;;;5137312;27;20172;-65
2023/10/25 02:09:12;;;;;;;1.00;1.00;;;15.80;73.10;;;;;;5136816;27;20211;-66
2023/10/25 02:11:38;;;;;;;1.95;1.30;;;15.80;73.00;;;;;;5135976;27;20176;-66
2023/10/25 02:14:03;;;;;;;1.02;0.85;;;15.80;73.00;;;;;;5136532;27;20545;-66
2023/10/25 02:16:29;;;;;;;1.25;1.15;;;15.80;72.90;;;;;;5136517;27;20649;-66
2023/10/25 02:18:54;;;;;;;1.58;1.13;;;15.80;72.90;;;;;;5136274;27;20168;-66
2023/10/25 02:21:20;;;;;;;1.35;1.25;;;15.80;72.90;;;;;;5136638;27;20172;-66
2023/10/25 02:23:45;;;;;;;1.38;1.27;;;15.80;72.90;;;;;;5136756;27;20169;-66
2023/10/25 02:26:11;;;;;;;1.25;1.15;;;15.80;72.90;;;;;;5135976;27;20176;-66
2023/10/25 02:28:36;;;;;;;0.95;0.95;;;15.80;72.90;;;;;;5135069;27;20520;-66
2023/10/25 02:31:02;;;;;;;1.30;1.20;;;15.80;72.90;;;;;;5136238;27;20673;-65
2023/10/25 02:33:27;;;;;;;1.77;1.23;;;15.80;72.90;;;;;;5135711;27;20175;-66
2023/10/25 02:35:53;;;;;;;1.38;1.00;;;15.80;72.90;;;;;;5136424;27;20184;-66
2023/10/25 02:38:18;;;;;;;1.77;1.20;;;15.80;72.90;;;;;;5136025;27;20235;-66
2023/10/25 02:40:44;;;;;;;0.93;0.90;;;15.80;72.80;;;;;;5135538;27;20184;-67
2023/10/25 02:43:09;;;;;;;0.98;0.82;;;15.80;72.90;;;;;;5135982;27;20200;-66
2023/10/25 02:45:35;;;;;;;0.85;0.85;;;15.80;72.80;;;;;;5135218;27;20203;-66
2023/10/25 02:48:00;;;;;;;1.55;1.45;;;15.80;72.80;;;;;;5135895;27;20280;-65
2023/10/25 02:50:26;;;;;;;1.20;1.10;;;15.80;72.90;;;;;;5136064;27;20244;-66
2023/10/25 02:52:52;;;;;;;1.23;1.13;;;15.80;72.80;;;;;;5135503;27;20686;-67
2023/10/25 02:55:17;;;;;;;1.38;0.98;;;15.80;72.90;;;;;;5135791;27;20172;-67
2023/10/25 02:57:43;;;;;;;1.20;1.10;;;15.80;72.80;;;;;;5135793;27;20183;-66
2023/10/25 03:00:10;;;;;;;0.88;0.88;;;15.80;72.80;;;;;;5134957;27;20539;-66
2023/10/25 03:02:36;;;;;;;1.08;1.08;;;15.70;72.80;;;;;;5135838;27;20244;-66
2023/10/25 03:05:02;;;;;;;1.33;1.23;;;15.70;72.80;;;;;;5135749;27;20177;-67
2023/10/25 03:07:27;;;;;;;1.23;1.10;;;15.70;72.80;;;;;;5134982;27;20259;-66
2023/10/25 03:09:53;;;;;;;1.48;1.23;;;15.70;72.70;;;;;;5135658;27;20333;-66
2023/10/25 03:12:18;;;;;;;1.02;1.02;;;15.70;72.80;;;;;;5135210;27;20630;-66
2023/10/25 03:14:44;;;;;;;1.00;1.00;;;15.70;72.90;;;;;;5134722;27;20185;-66
2023/10/25 03:17:09;;;;;;;1.05;0.98;;;15.70;72.80;;;;;;5135496;27;20169;-66
2023/10/25 03:19:35;;;;;;;1.00;0.90;;;15.70;72.90;;;;;;5135509;27;20182;-66
2023/10/25 03:22:02;;;;;;;1.15;1.08;;;15.70;72.80;;;;;;5134658;27;20175;-67
2023/10/25 03:24:28;;;;;;;0.95;0.93;;;15.70;72.80;;;;;;5135302;27;20259;-66
2023/10/25 03:26:54;;;;;;;1.42;1.13;;;15.70;72.80;;;;;;5135448;27;20247;-66
2023/10/25 03:29:20;;;;;;;1.00;0.93;;;15.70;72.70;;;;;;5134194;27;20677;-66
2023/10/25 03:31:45;;;;;;;1.20;1.02;;;15.70;72.70;;;;;;5135405;27;20694;-66
2023/10/25 03:34:11;;;;;;;1.02;0.90;;;15.70;72.70;;;;;;5135128;27;20169;-66
2023/10/25 03:36:36;;;;;;;0.88;0.88;;;15.70;72.70;;;;;;5134230;27;20172;-66
2023/10/25 03:39:02;;;;;;;1.30;1.20;;;15.70;72.70;;;;;;5135011;27;20263;-67
2023/10/25 03:41:27;;;;;;;1.35;1.25;;;15.70;72.70;;;;;;5134708;27;20243;-66
2023/10/25 03:43:53;;;;;;;1.52;0.90;;;15.70;72.70;;;;;;5134325;27;20172;-66
2023/10/25 03:46:18;;;;;;;0.90;0.90;;;15.70;72.80;;;;;;5134861;27;20177;-66
2023/10/25 03:48:44;;;;;;;0.98;0.90;;;15.70;72.70;;;;;;5134638;27;20227;-65
2023/10/25 03:51:10;;;;;;;1.00;1.00;;;15.70;72.70;;;;;;5134093;27;20183;-66
2023/10/25 03:53:39;;;;;;;1.17;0.88;;;15.70;72.70;;;;;;5134821;27;20537;-66
2023/10/25 03:56:05;;;;;;;1.27;1.17;;;15.70;72.70;;;;;;5133820;27;20172;-67
2023/10/25 03:58:30;;;;;;;1.27;0.90;;;15.60;72.70;;;;;;5134814;27;20179;-66
2023/10/25 04:01:00;;;;;;;0.90;0.90;;;16.00;72.90;;;;;;5134923;27;20233;-67
2023/10/25 04:03:26;;;;;;;1.02;1.00;;;15.70;72.80;;;;;;5134032;27;20585;-66
2023/10/25 04:05:52;;;;;;;0.90;0.90;;;15.70;72.70;;;;;;5134688;27;20184;-66
2023/10/25 04:08:17;;;;;;;1.00;1.00;;;15.60;72.60;;;;;;5134310;27;20169;-67
2023/10/25 04:10:50;;;;;;;0.90;0.90;;;15.60;72.60;;;;;;5133641;27;20219;-65
2023/10/25 04:13:16;;;;;;;0.95;0.95;;;15.60;72.70;;;;;;5134496;27;20180;-66
2023/10/25 04:15:41;;;;;;;1.30;1.20;;;15.60;72.70;;;;;;5134518;27;20181;-66
2023/10/25 04:18:09;;;;;;;1.17;1.08;;;15.60;72.60;;;;;;5133604;27;20173;-66
2023/10/25 04:20:34;;;;;;;0.80;0.80;;;15.60;72.60;;;;;;5134255;27;20184;-66
2023/10/25 04:23:00;;;;;;;0.93;0.82;;;15.60;72.60;;;;;;5134147;27;20169;-67
2023/10/25 04:25:26;;;;;;;1.42;0.90;;;15.60;72.60;;;;;;5133548;27;20173;-66
2023/10/25 04:27:53;;;;;;;0.70;0.70;;;15.60;72.60;;;;;;5134454;27;20253;-66
2023/10/25 04:30:18;;;;;;;2.38;1.00;;;15.60;72.60;;;;;;5134071;27;20326;-65
2023/10/25 04:32:46;;;;;;;0.80;0.80;;;15.60;72.50;;;;;;5133475;27;20599;-66
2023/10/25 04:35:12;;;;;;;1.00;1.00;;;15.60;72.60;;;;;;5133951;27;20174;-66
2023/10/25 04:37:37;;;;;;;4.53;1.63;;;15.60;72.60;;;;;;5133954;27;20252;-66
2023/10/25 04:40:03;;;;;;;1.02;1.02;;;15.60;72.60;;;;;;5133010;27;20702;-67
2023/10/25 04:42:29;;;;;;;1.27;1.17;;;15.50;72.50;;;;;;5133957;27;20244;-66
2023/10/25 04:44:54;;;;;;;1.50;1.17;;;15.60;72.50;;;;;;5134178;27;20622;-66
2023/10/25 04:47:20;;;;;;;1.55;0.90;;;15.60;72.50;;;;;;5132840;27;20315;-65
2023/10/25 04:49:46;;;;;;;1.20;1.10;;;15.60;72.50;;;;;;5133537;27;20214;-66
2023/10/25 04:52:11;;;;;;;0.90;0.90;;;15.60;72.50;;;;;;5132287;27;20176;-65
2023/10/25 04:54:37;;;;;;;1.00;0.98;;;15.50;72.50;;;;;;5133627;27;20168;-65
2023/10/25 04:57:02;;;;;;;0.90;0.90;;;15.60;72.50;;;;;;5133597;27;20630;-67
2023/10/25 04:59:29;;;;;;;1.25;1.00;;;15.60;72.50;;;;;;5133249;27;20168;-66
2023/10/25 05:01:54;;;;;;;1.10;1.00;;;15.50;72.40;;;;;;5133810;27;20175;-66
2023/10/25 05:04:20;;;;;;;1.00;1.00;;;15.50;72.50;;;;;;5133469;27;20263;-65
2023/10/25 05:06:46;;;;;;;1.17;1.00;;;15.50;72.50;;;;;;5133057;27;20247;-65
2023/10/25 05:09:12;;;;;;;1.27;1.10;;;15.60;72.50;;;;;;5133480;28;20308;-66
2023/10/25 05:11:38;;;;;;;1.17;1.08;;;15.50;72.50;;;;;;5133604;28;20689;-66
2023/10/25 05:14:03;;;;;;;1.15;0.90;;;15.50;72.50;;;;;;5114485;28;20265;-67
2023/10/25 05:16:29;;;;;;;1.08;0.90;;;15.50;72.50;;;;;;5133384;28;20180;-66
2023/10/25 05:18:55;;;;;;;1.00;0.90;;;15.50;72.50;;;;;;5133831;28;20180;-66
2023/10/25 05:21:21;;;;;;;1.25;1.02;;;15.50;72.50;;;;;;5132445;28;20328;-67
2023/10/25 05:23:46;;;;;;;1.10;1.10;;;15.50;72.50;;;;;;5114916;28;20225;-67
2023/10/25 05:26:12;;;;;;;1.17;1.02;;;15.50;72.40;;;;;;5133433;28;20225;-67
2023/10/25 05:28:38;;;;;;;1.35;1.25;;;15.50;72.50;;;;;;5132628;28;20176;-66
2023/10/25 05:31:04;;;;;;;1.00;1.00;;;15.50;72.50;;;;;;5133226;28;20310;-66
2023/10/25 05:33:33;;;;;;;1.35;1.10;;;15.50;72.50;;;;;;5133196;28;20237;-66
2023/10/25 05:36:00;;;;;;;1.50;1.40;;;15.50;72.60;;;;;;5132417;28;20194;-66
2023/10/25 05:38:26;;;;;;;0.90;0.90;;;15.50;72.50;;;;;;5133223;28;20634;-67
2023/10/25 05:40:53;;;;;;;0.90;0.90;;;15.50;72.50;;;;;;5133229;28;20177;-66
2023/10/25 05:43:22;;;;;;;1.23;1.13;;;15.50;72.50;;;;;;5132470;28;20587;-66
2023/10/25 05:45:48;;;;;;;1.50;1.40;;;15.50;72.50;;;;;;5115564;28;20598;-66
2023/10/25 05:48:15;;;;;;;1.20;1.10;;;15.50;72.50;;;;;;5132664;28;20248;-65
2023/10/25 05:50:44;;;;;;;1.17;0.90;;;15.50;72.50;;;;;;5132323;28;20212;-67
2023/10/25 05:53:13;;;;;;;1.08;1.08;;;15.50;72.50;;;;;;5133265;28;20572;-67
2023/10/25 05:55:39;;;;;;;1.30;1.20;;;15.50;72.60;;;;;;5132593;28;20172;-67
2023/10/25 05:58:04;;;;;;;1.27;1.17;;;15.50;72.50;;;;;;5133051;28;20252;-67
2023/10/25 06:00:30;;;;;;;1.58;1.05;;;15.50;72.50;;;;;;5133065;28;20197;-66
2023/10/25 06:02:56;;;;;;;1.77;1.48;;;15.50;72.50;;;;;;5133477;27;20213;-67
2023/10/25 06:05:22;;;;;;;0.90;0.90;;;15.50;72.60;;;;;;5118394;27;20173;-66
2023/10/25 06:07:48;;;;;;;2.78;1.20;;;15.50;72.50;;;;;;5101775;27;20231;-67
2023/10/25 06:10:13;;;;;;;2.72;1.33;;;15.50;72.40;;;;;;5135992;27;20628;-66
2023/10/25 06:12:40;;;;;;;1.67;1.27;;;15.60;72.30;;;;;;5136951;27;20588;-66
2023/10/25 06:15:06;;;;;;;1.33;1.23;;;15.70;72.20;;;;;;5136581;27;20204;-67
2023/10/25 06:17:33;;;;;;;1.75;1.33;;;15.80;72.20;;;;;;5135928;27;20196;-66
2023/10/25 06:19:58;;;;;;;1.35;1.20;;;16.00;72.00;;;;;;5118232;27;20180;-67
2023/10/25 06:22:24;;;;;;;1.10;1.02;;;16.20;71.70;;;;;;5136764;27;20176;-67
2023/10/25 06:24:49;;;;;;;1.27;1.17;;;16.30;71.20;;;;;;5136031;27;20172;-67
2023/10/25 06:27:18;;;;;;;1.20;1.10;;;16.50;70.80;;;;;;5136393;27;20171;-67
2023/10/25 06:29:43;;;;;;;1.23;1.10;;;16.70;70.50;;;;;;5136422;27;20217;-66
2023/10/25 06:32:09;;;;;;;0.90;0.90;;;16.90;69.90;;;;;;5135519;27;20768;-66
2023/10/25 06:34:34;;;;;;;1.42;1.15;;;17.20;69.00;;;;;;5135891;27;20301;-66
2023/10/25 06:37:00;;;;;;;1.20;1.10;;;17.40;68.20;;;;;;5136294;27;20220;-67
2023/10/25 06:39:26;;;;;;;1.48;0.90;;;17.60;67.80;;;;;;5135620;27;20259;-66
2023/10/25 06:41:52;;;;;;;1.15;1.05;;;17.70;67.50;;;;;;5136307;27;20183;-67
2023/10/25 06:44:18;;;;;;;0.93;0.93;;;17.80;67.20;;;;;;5135865;27;20176;-65
2023/10/25 06:46:43;;;;;;;1.25;1.15;;;17.80;67.00;;;;;;5135158;27;20259;-67
2023/10/25 06:49:09;;;;;;;0.90;0.90;;;17.90;66.80;;;;;;5135865;27;20604;-65
2023/10/25 06:51:35;;;;;;;1.00;0.90;;;17.90;66.80;;;;;;5136022;27;20572;-66
2023/10/25 06:54:01;;;;;;;0.82;0.82;;;17.90;66.70;;;;;;5116993;27;20176;-67
2023/10/25 06:56:26;;;;;;;0.85;0.85;;;17.90;66.50;;;;;;5135930;27;20609;-67
2023/10/25 06:58:52;;;;;;;0.93;0.77;;;17.90;66.60;;;;;;5135300;27;20230;-67
2023/10/25 07:01:19;;;;;;;1.30;0.82;;;17.90;66.60;;;;;;5135572;27;20255;-66
2023/10/25 07:03:45;;;;;;;0.85;0.85;;;17.90;66.50;;;;;;5100543;27;20169;-67
2023/10/25 07:06:11;;;;;;;1.40;0.98;;;17.90;66.50;;;;;;5135058;27;20203;-67
2023/10/25 07:08:37;;;;;;;1.00;1.00;;;17.90;66.50;;;;;;5117371;27;20541;-67
2023/10/25 07:11:03;;;;;;;1.92;1.10;;;17.80;66.80;;;;;;5135387;27;20208;-66
2023/10/25 07:13:29;;;;;;;0.90;0.90;;;17.80;67.10;;;;;;5134795;27;20240;-66
2023/10/25 07:15:55;;;;;;;1.10;1.00;;;17.70;67.10;;;;;;5135151;27;20180;-67
2023/10/25 07:18:21;;;;;;;0.82;0.82;;;17.70;67.30;;;;;;5135211;27;20173;-66
2023/10/25 07:20:46;;;;;;;1.33;1.00;;;17.60;67.40;;;;;;5134933;27;20622;-67
2023/10/25 07:23:12;;;;;;;0.80;0.80;;;17.60;67.50;;;;;;5135062;27;20172;-67
2023/10/25 07:25:38;;;;;;;0.90;0.90;;;17.60;67.80;;;;;;5135213;27;20183;-67
2023/10/25 07:28:04;;;;;;;0.73;0.73;;;17.50;67.80;;;;;;5134367;27;20172;-67
2023/10/25 07:30:30;;;;;;;1.20;1.10;;;17.60;67.90;;;;;;5135071;27;20208;-66
2023/10/25 07:32:56;;;;;;;1.08;1.08;;;17.50;68.00;;;;;;5135261;27;20176;-67
2023/10/25 07:35:21;;;;;;;1.05;0.93;;;17.40;67.90;;;;;;5134249;27;20561;-66
2023/10/25 07:37:47;;;;;;;1.15;1.08;;;17.40;68.30;;;;;;5135176;27;20536;-67
2023/10/25 07:40:12;;;;;;;1.08;0.93;;;17.30;68.40;;;;;;5135005;27;20297;-67
2023/10/25 07:42:38;;;;;;;0.80;0.80;;;17.20;68.40;;;;;;5134179;27;20180;-66
2023/10/25 07:45:04;;;;;;;0.93;0.90;;;17.30;68.70;;;;;;5134809;27;20221;-66
2023/10/25 07:47:29;;;;;;;0.90;0.90;;;17.20;68.80;;;;;;5134491;27;20297;-65
2023/10/25 07:49:55;;;;;;;1.10;1.00;;;17.20;68.80;;;;;;5134378;27;20219;-65
2023/10/25 07:52:23;;;;;;;0.93;0.77;;;17.20;68.80;;;;;;5134877;27;20188;-66
2023/10/25 07:54:48;;;;;;;1.77;1.10;;;17.20;68.90;;;;;;5134933;27;20187;-66
2023/10/25 07:57:14;;;;;;;1.40;1.17;;;17.20;68.90;;;;;;5133829;27;20164;-66
2023/10/25 07:59:40;;;;;;;1.17;1.08;;;17.10;68.90;;;;;;5134784;27;20251;-67
2023/10/25 08:02:05;;;;;;;2.03;1.08;;;17.10;69.10;;;;;;5133869;27;20170;-66
2023/10/25 08:04:31;;;;;;;1.00;1.00;;;17.10;69.30;;;;;;5134644;27;20164;-66
2023/10/25 08:06:57;;;;;;;1.50;0.93;;;17.10;69.40;;;;;;5134778;27;20638;-66
2023/10/25 08:09:22;;;;;;;0.80;0.80;;;17.10;69.50;;;;;;5133582;27;20971;-66
2023/10/25 08:11:48;;;;;;;1.27;1.17;;;17.10;69.40;;;;;;5134336;27;20543;-66
2023/10/25 08:14:13;;;;;;;2.35;1.10;;;17.10;69.40;;;;;;5134046;27;20176;-66
2023/10/25 08:16:39;;;;;;;1.83;1.02;;;17.10;69.40;;;;;;5133458;27;20179;-66
2023/10/25 08:19:07;;;;;;;1.10;0.93;;;17.10;69.40;;;;;;5134400;27;20179;-66
2023/10/25 08:21:33;;;;;;;0.90;0.90;;;17.00;69.40;;;;;;5134180;27;20626;-67
2023/10/25 08:23:59;;;;;;;1.23;1.13;;;17.00;69.50;;;;;;5133421;27;20168;-67
2023/10/25 08:26:27;;;;;;;1.30;1.20;;;17.00;69.50;;;;;;5133270;27;20176;-66
2023/10/25 08:28:52;;;;;;;1.20;1.00;;;17.00;69.60;;;;;;5134113;27;20176;-66
2023/10/25 08:31:19;;;;;;;1.35;1.25;;;17.00;69.80;;;;;;5133170;27;20176;-66
2023/10/25 08:33:44;;;;;;;1.05;1.00;;;17.00;69.80;;;;;;5137166;27;20182;-66
2023/10/25 08:36:10;;;;;;;1.10;1.00;;;17.00;69.70;;;;;;5136500;27;20204;-66
2023/10/25 08:38:36;;;;;;;1.02;1.02;;;17.00;69.70;;;;;;5134171;27;20168;-66
2023/10/25 08:41:05;;;;;;;1.13;1.00;;;17.00;69.70;;;;;;5134138;27;20167;-67
2023/10/25 08:43:34;;;;;;;1.67;1.00;;;17.00;69.70;;;;;;5133804;27;20647;-66
2023/10/25 08:46:03;;;;;;;2.20;0.90;;;16.90;69.80;;;;;;5132956;27;20229;-66
2023/10/25 08:48:28;;;;;;;1.05;1.05;;;16.90;69.90;;;;;;5133481;27;20303;-65
2023/10/25 08:50:55;;;;;;;1.00;1.00;;;16.80;69.90;;;;;;5133788;27;20346;-66
2023/10/25 08:53:24;;;;;;;1.10;0.90;;;16.90;70.00;;;;;;5132894;27;20180;-66
2023/10/25 08:55:51;;;;;;;0.85;0.82;;;16.90;70.00;;;;;;5115859;27;20177;-67
2023/10/25 08:58:17;;;;;;;1.23;0.90;;;16.90;70.80;;;;;;5133403;27;20173;-67
2023/10/25 09:00:42;;;;;;;0.98;0.98;;;17.00;70.10;;;;;;5114873;27;20183;-66
2023/10/25 09:03:08;;;;;;;1.20;1.10;;;16.90;70.00;;;;;;5133410;27;20171;-66
2023/10/25 09:05:41;;;;;;;1.67;0.90;;;17.00;70.00;;;;;;5132707;27;20180;-67
2023/10/25 09:08:18;;;;;;;1.25;0.98;;;16.90;69.90;;;;;;5133649;27;20624;-66
2023/10/25 09:10:45;;;;;;;0.80;0.77;;;16.90;70.00;;;;;;5132783;28;20211;-67
2023/10/25 09:13:13;;;;;;;1.23;1.13;;;16.80;69.90;;;;;;5097400;28;20647;-66
2023/10/25 09:15:39;;;;;;;0.82;0.82;;;16.80;70.80;;;;;;5133787;28;20260;-65
2023/10/25 09:18:05;;;;;;;0.82;0.82;;;16.80;70.10;;;;;;5115131;28;20247;-66
2023/10/25 09:20:30;;;;;;;1.23;1.13;;;16.80;70.30;;;;;;5132608;28;20214;-66
2023/10/25 09:23:12;;;;;;;1.20;0.98;;;16.80;70.30;;;;;;5133558;28;20180;-67
2023/10/25 09:25:37;;;;;;;1.80;1.08;;;16.80;70.20;;;;;;5133305;28;20255;-66
2023/10/25 09:28:16;;;;;;;2.10;1.10;;;16.90;70.30;;;;;;5132707;28;20644;-66
2023/10/25 09:30:42;;;;;;;1.15;1.00;;;16.90;70.20;;;;;;5133350;28;20211;-66
2023/10/25 09:33:07;;;;;;;1.15;0.80;;;16.80;70.10;;;;;;5133377;28;20173;-65
2023/10/25 09:35:33;;;;;;;1.95;1.27;;;16.80;70.20;;;;;;5132295;28;20184;-66
2023/10/25 09:37:59;;;;;;;2.70;1.27;;;16.80;70.20;;;;;;5115897;27;20203;-67
2023/10/25 09:40:25;;;;;;;1.23;0.90;;;16.80;70.30;;;;;;5119356;27;20643;-67
2023/10/25 09:42:52;;;;;;;1.45;1.00;;;16.70;70.40;;;;;;5118417;27;20671;-66
2023/10/25 09:45:24;;;;;;;1.02;0.93;;;16.70;70.50;;;;;;5137232;27;20177;-65
2023/10/25 09:47:53;;;;;;;1.10;1.10;;;16.70;70.50;;;;;;5117905;27;20224;-65
2023/10/25 09:50:31;;;;;;;1.30;1.05;;;16.70;70.60;;;;;;5102553;27;21172;-66
2023/10/25 09:53:00;;;;;;;1.08;1.02;;;16.70;70.70;;;;;;5137019;27;20180;-66
2023/10/25 09:55:25;;;;;;;1.15;1.00;;;16.70;70.80;;;;;;5117999;27;20183;-67
2023/10/25 09:57:54;;;;;;;2.15;0.80;;;16.60;70.70;;;;;;5101865;27;20169;-66
2023/10/25 10:00:20;;;;;;;1.02;1.00;;;16.60;70.80;;;;;;5101517;27;20579;-66
2023/10/25 10:03:06;;;;;;;0.93;0.90;;;16.60;70.80;;;;;;5136152;27;20305;-66
2023/10/25 10:05:38;;;;;;;0.82;0.80;;;16.60;71.00;;;;;;5102206;27;20180;-66
2023/10/25 10:08:12;;;;;;;2.10;0.90;;;16.60;71.00;;;;;;5119194;27;20289;-66
2023/10/25 10:10:56;;;;;;;1.15;0.90;;;16.60;71.10;;;;;;5118206;27;20689;-66
2023/10/25 10:13:22;;;;;;;0.93;0.93;;;16.60;71.10;;;;;;5118194;27;20175;-66
2023/10/25 10:16:19;;;;;;;1.25;1.15;;;16.50;71.20;;;;;;5136282;27;20177;-66
2023/10/25 10:18:46;;;;;;;0.93;0.93;;;16.60;71.20;;;;;;5120343;27;20208;-66
2023/10/25 10:21:14;;;;;;;1.10;1.00;;;16.60;71.20;;;;;;5136525;27;20180;-66
2023/10/25 10:23:40;;;;;;;1.48;1.20;;;16.60;71.10;;;;;;5135924;27;20191;-66
2023/10/25 10:26:09;;;;;;;1.20;1.10;;;16.60;71.10;;;;;;5136299;27;20245;-66
2023/10/25 10:28:41;;;;;;;1.15;0.90;;;16.60;71.10;;;;;;5118223;27;20248;-65
2023/10/25 10:31:11;;;;;;;1.30;1.00;;;16.60;71.10;;;;;;5135585;27;20208;-66
2023/10/25 10:33:47;;;;;;;1.23;1.13;;;16.60;71.10;;;;;;5136292;27;20204;-66
2023/10/25 10:36:33;;;;;;;0.90;0.80;;;16.60;71.20;;;;;;5136120;27;20289;-66
2023/10/25 10:39:11;;;;;;;1.40;0.70;;;16.50;71.10;;;;;;5135133;27;20176;-67
2023/10/25 10:41:36;;;;;;;1.00;0.90;;;16.60;71.20;;;;;;5136189;27;20200;-66
2023/10/25 10:44:02;;;;;;;0.90;0.90;;;16.50;71.20;;;;;;5135519;27;20180;-67
2023/10/25 10:46:29;;;;;;;1.30;1.17;;;16.50;71.30;;;;;;5136071;27;20173;-66
2023/10/25 10:48:55;;;;;;;0.98;0.98;;;16.50;71.30;;;;;;5117355;27;20228;-66
2023/10/25 10:51:20;;;;;;;1.42;0.90;;;16.50;71.40;;;;;;5116515;27;20184;-66
2023/10/25 10:53:46;;;;;;;1.00;1.00;;;16.50;71.40;;;;;;5136150;27;20173;-66
2023/10/25 10:56:12;;;;;;;1.20;0.93;;;16.50;71.40;;;;;;5135941;27;20169;-67
2023/10/25 10:58:37;;;;;;;0.80;0.80;;;16.50;71.40;;;;;;5135242;27;20547;-67
2023/10/25 11:01:03;;;;;;;1.00;1.00;;;16.50;71.50;;;;;;5135737;27;20530;-66
2023/10/25 11:03:28;;;;;;;1.08;0.98;;;16.50;71.50;;;;;;5117348;27;20169;-67
2023/10/25 11:05:56;;;;;;;0.90;0.90;;;16.40;71.40;;;;;;5135345;27;20180;-65
2023/10/25 11:08:23;;;;;;;1.05;0.90;;;16.40;71.50;;;;;;5135663;27;20187;-66
2023/10/25 11:10:49;;;;;;;1.13;1.02;;;16.40;71.50;;;;;;5135512;27;20675;-66
2023/10/25 11:13:15;;;;;;;1.15;1.05;;;16.40;71.50;;;;;;5134695;27;20176;-66
2023/10/25 11:15:40;;;;;;;1.15;0.80;;;16.40;71.50;;;;;;5100516;27;20254;-67
2023/10/25 11:18:09;;;;;;;1.02;1.00;;;16.40;71.60;;;;;;5135436;27;20180;-66
2023/10/25 11:20:35;;;;;;;0.90;0.90;;;16.40;71.60;;;;;;5134889;27;20252;-67
2023/10/25 11:23:02;;;;;;;1.25;1.10;;;16.40;71.60;;;;;;5135542;27;20192;-67
2023/10/25 11:25:29;;;;;;;2.15;0.90;;;16.40;71.60;;;;;;5135336;27;20627;-66
2023/10/25 11:27:56;;;;;;;0.80;0.80;;;16.40;71.60;;;;;;5116705;27;20630;-67
2023/10/25 11:30:21;;;;;;;0.93;0.88;;;16.40;71.60;;;;;;5134821;27;20644;-66
2023/10/25 11:32:50;;;;;;;1.00;1.00;;;16.40;71.60;;;;;;5135447;27;20213;-67
2023/10/25 11:35:25;;;;;;;1.05;0.98;;;16.40;71.60;;;;;;5115881;27;20172;-66
2023/10/25 11:37:51;;;;;;;1.35;1.05;;;16.40;71.60;;;;;;5135458;27;20531;-67
2023/10/25 11:40:18;;;;;;;1.20;1.10;;;16.40;71.60;;;;;;5134285;27;20634;-67
2023/10/25 11:42:44;;;;;;;0.82;0.82;;;16.40;71.60;;;;;;5135049;27;20180;-66
2023/10/25 11:45:10;;;;;;;1.10;1.00;;;16.40;71.60;;;;;;5099933;27;20651;-66
2023/10/25 11:47:37;;;;;;;1.50;0.85;;;16.40;71.70;;;;;;5134106;27;20297;-66
2023/10/25 11:50:03;;;;;;;1.10;1.10;;;16.40;71.60;;;;;;5134935;27;20204;-66
2023/10/25 11:52:29;;;;;;;2.25;1.45;;;16.40;71.70;;;;;;5134832;27;20183;-66
2023/10/25 11:54:56;;;;;;;1.00;1.00;;;16.30;71.60;;;;;;5134260;27;20572;-67
2023/10/25 11:57:29;;;;;;;1.20;0.90;;;16.40;71.60;;;;;;5134573;27;20634;-65
2023/10/25 11:59:54;;;;;;;1.10;1.00;;;16.40;71.70;;;;;;5135073;27;20179;-67
2023/10/25 12:02:21;;;;;;;1.00;1.00;;;16.40;71.70;;;;;;5133766;27;20165;-66
2023/10/25 12:04:47;;;;;;;1.23;1.05;;;16.40;71.70;;;;;;5134729;27;20180;-66
2023/10/25 12:07:22;;;;;;;1.30;1.20;;;16.40;71.70;;;;;;5134428;27;20544;-67
2023/10/25 12:09:51;;;;;;;1.08;0.98;;;16.40;71.70;;;;;;5133806;27;20260;-67
2023/10/25 12:12:17;;;;;;;0.80;0.80;;;16.40;71.70;;;;;;5134347;27;20173;-67
2023/10/25 12:14:42;;;;;;;0.82;0.82;;;16.40;71.80;;;;;;5134653;27;20184;-66
2023/10/25 12:17:10;;;;;;;1.58;1.00;;;16.30;71.70;;;;;;5133789;27;20168;-67
2023/10/25 12:19:36;;;;;;;1.13;1.02;;;16.40;71.80;;;;;;5134316;27;20221;-67
2023/10/25 12:22:07;;;;;;;1.50;1.17;;;16.30;71.70;;;;;;5134282;27;20177;-67
2023/10/25 12:24:33;;;;;;;0.95;0.85;;;16.30;71.80;;;;;;5133369;27;20183;-67
2023/10/25 12:26:59;;;;;;;0.90;0.90;;;16.30;72.70;;;;;;5134438;27;20255;-67
2023/10/25 12:29:25;;;;;;;1.67;1.00;;;16.30;71.80;;;;;;5133718;27;20227;-67
2023/10/25 12:31:50;;;;;;;1.00;1.00;;;16.30;71.80;;;;;;5133799;27;20529;-67
2023/10/25 12:34:16;;;;;;;1.00;0.90;;;16.30;71.90;;;;;;5133785;27;20191;-66
2023/10/25 12:36:41;;;;;;;0.82;0.82;;;16.20;71.90;;;;;;5133275;27;20173;-67
2023/10/25 12:39:07;;;;;;;1.25;1.00;;;16.30;71.90;;;;;;5133789;27;20164;-66
2023/10/25 12:41:33;;;;;;;1.27;1.17;;;16.30;71.90;;;;;;5133847;27;20210;-67
2023/10/25 12:43:59;;;;;;;1.15;0.95;;;16.30;71.90;;;;;;5133253;27;20187;-66